CFG7891 VCBI-EDDL
Flight info
| Callsign | CFG7891 |
|---|---|
| Flight time | N/A |
| Altitude | 34000 |
| Route | BASUR2D BASUR P570 MIXAM P574 DAPOK T508 SOLUD P574 RUKOR DCT IVOXI M557 TUMAK L602 GADSI M860 NINVA UM860 CRM UL746 ODERO T86 MATEL T746 ARGES DCT RUTUV DCT NARKA DCT AMRAX DCT ODNEM DCT VOZ DCT LOMKI DCT RAPET T843 ARNIX T852 TINSA T854 DOMUX DOMUX1A |
| Aircraft | A338/H-SADE1E2E3GHIJ3J5M1P2RWXY/LB2D1 |
Departure
| Time | 2026-05-08 17:22 |
|---|---|
| Airport | Bandaranaike International Colombo Airport (VCBI) |
Arrival
| Time | N/A |
|---|---|
| Airport | Düsseldorf Airport (EDDL) |
| Time | Latitude | Longitude | Altitude | Speed | Heading |
|---|---|---|---|---|---|
| 2026-05-08 17:12 | 7.17644 | 79.88368 | 36 ft | 0 kts | 37° |
| 2026-05-08 17:15 | 7.17631 | 79.88357 | 37 ft | 3 kts | 37° |
| 2026-05-08 17:15 | 7.17616 | 79.88346 | 34 ft | 3 kts | 37° |
| 2026-05-08 17:15 | 7.17600 | 79.88334 | 35 ft | 3 kts | 23° |
| 2026-05-08 17:16 | 7.17581 | 79.88329 | 35 ft | 3 kts | 0° |
| 2026-05-08 17:16 | 7.17574 | 79.88328 | 36 ft | 0 kts | 352° |
| 2026-05-08 17:18 | 7.17577 | 79.88328 | 36 ft | 2 kts | 350° |
| 2026-05-08 17:18 | 7.17603 | 79.88308 | 36 ft | 8 kts | 323° |
| 2026-05-08 17:18 | 7.17617 | 79.88254 | 38 ft | 12 kts | 260° |
| 2026-05-08 17:19 | 7.17548 | 79.88180 | 37 ft | 16 kts | 218° |
| 2026-05-08 17:19 | 7.17438 | 79.88095 | 37 ft | 25 kts | 217° |
| 2026-05-08 17:19 | 7.17331 | 79.88012 | 37 ft | 31 kts | 218° |
| 2026-05-08 17:19 | 7.17163 | 79.87882 | 37 ft | 30 kts | 217° |
| 2026-05-08 17:20 | 7.16996 | 79.87760 | 37 ft | 29 kts | 216° |
| 2026-05-08 17:20 | 7.16856 | 79.87648 | 35 ft | 24 kts | 232° |
| 2026-05-08 17:20 | 7.16864 | 79.87557 | 40 ft | 0 kts | 301° |
| 2026-05-08 17:20 | 7.16869 | 79.87550 | 37 ft | 4 kts | 304° |
| 2026-05-08 17:21 | 7.16908 | 79.87510 | 38 ft | 12 kts | 328° |
| 2026-05-08 17:21 | 7.16990 | 79.87530 | 36 ft | 13 kts | 35° |
| 2026-05-08 17:21 | 7.17209 | 79.87694 | 37 ft | 73 kts | 37° |
| 2026-05-08 17:21 | 7.17789 | 79.88135 | 40 ft | 135 kts | 37° |
| 2026-05-08 17:22 | 7.18692 | 79.88817 | 93 ft | 186 kts | 37° |
| 2026-05-08 17:22 | 7.19700 | 79.89614 | 1019 ft | 177 kts | 39° |
| 2026-05-08 17:22 | 7.20837 | 79.90209 | 1570 ft | 198 kts | 2° |
| 2026-05-08 17:22 | 7.22173 | 79.89847 | 1892 ft | 212 kts | 309° |
| 2026-05-08 17:23 | 7.22844 | 79.88549 | 2565 ft | 210 kts | 287° |
| 2026-05-08 17:23 | 7.23604 | 79.87220 | 2969 ft | 238 kts | 326° |
| 2026-05-08 17:23 | 7.25180 | 79.86711 | 3695 ft | 234 kts | 355° |
| 2026-05-08 17:23 | 7.26766 | 79.86376 | 4523 ft | 244 kts | 329° |
| 2026-05-08 17:24 | 7.27865 | 79.85047 | 4871 ft | 259 kts | 290° |
| 2026-05-08 17:24 | 7.28519 | 79.83375 | 5824 ft | 255 kts | 297° |
| 2026-05-08 17:24 | 7.29434 | 79.81798 | 6436 ft | 272 kts | 302° |
| 2026-05-08 17:24 | 7.30505 | 79.80215 | 7359 ft | 269 kts | 305° |
| 2026-05-08 17:25 | 7.31642 | 79.78693 | 8180 ft | 276 kts | 308° |
| 2026-05-08 17:25 | 7.32710 | 79.77113 | 8898 ft | 279 kts | 291° |
| 2026-05-08 17:25 | 7.32913 | 79.75192 | 9813 ft | 271 kts | 257° |
| 2026-05-08 17:25 | 7.32290 | 79.73384 | 10086 ft | 295 kts | 240° |
| 2026-05-08 17:26 | 7.30822 | 79.71768 | 10080 ft | 326 kts | 216° |
| 2026-05-08 17:26 | 7.28880 | 79.70462 | 10274 ft | 353 kts | 213° |
| 2026-05-08 17:26 | 7.26753 | 79.68989 | 10217 ft | 386 kts | 216° |
| 2026-05-08 17:26 | 7.24551 | 79.67229 | 10086 ft | 422 kts | 219° |
| 2026-05-08 17:27 | 7.22220 | 79.65252 | 9946 ft | 454 kts | 223° |
| 2026-05-08 17:27 | 7.20304 | 79.62634 | 10046 ft | 479 kts | 242° |
| 2026-05-08 17:27 | 7.19328 | 79.59340 | 9987 ft | 507 kts | 264° |
| 2026-05-08 17:27 | 7.19559 | 79.55756 | 10256 ft | 524 kts | 280° |
| 2026-05-08 17:28 | 7.20795 | 79.52234 | 10106 ft | 540 kts | 296° |
| 2026-05-08 17:28 | 7.22632 | 79.48940 | 10335 ft | 541 kts | 301° |
| 2026-05-08 17:28 | 7.24640 | 79.45730 | 10189 ft | 539 kts | 303° |
| 2026-05-08 17:28 | 7.26648 | 79.42610 | 11670 ft | 521 kts | 302° |
| 2026-05-08 17:29 | 7.28451 | 79.39553 | 13646 ft | 494 kts | 298° |
| 2026-05-08 17:29 | 7.29920 | 79.36532 | 15775 ft | 464 kts | 294° |
| 2026-05-08 17:29 | 7.31235 | 79.33674 | 17790 ft | 435 kts | 296° |
| 2026-05-08 17:29 | 7.32626 | 79.31092 | 19664 ft | 404 kts | 300° |
| 2026-05-08 17:30 | 7.33996 | 79.28733 | 21324 ft | 379 kts | 299° |
| 2026-05-08 17:30 | 7.35231 | 79.26366 | 21654 ft | 389 kts | 296° |
| 2026-05-08 17:30 | 7.36423 | 79.23868 | 21878 ft | 398 kts | 296° |
| 2026-05-08 17:30 | 7.37718 | 79.21417 | 22524 ft | 396 kts | 299° |
| 2026-05-08 17:31 | 7.39082 | 79.18987 | 22875 ft | 402 kts | 298° |
| 2026-05-08 17:31 | 7.40380 | 79.16481 | 23321 ft | 403 kts | 296° |
| 2026-05-08 17:31 | 7.41631 | 79.13952 | 23769 ft | 406 kts | 297° |
| 2026-05-08 17:31 | 7.42971 | 79.11432 | 24101 ft | 410 kts | 299° |
| 2026-05-08 17:32 | 7.44353 | 79.08920 | 24562 ft | 410 kts | 298° |
| 2026-05-08 17:32 | 7.45674 | 79.06355 | 24871 ft | 414 kts | 296° |
| 2026-05-08 17:32 | 7.46960 | 79.03794 | 25235 ft | 416 kts | 297° |
| 2026-05-08 17:32 | 7.48329 | 79.01226 | 25619 ft | 417 kts | 298° |
| 2026-05-08 17:33 | 7.49726 | 78.98646 | 25886 ft | 421 kts | 298° |
| 2026-05-08 17:33 | 7.51073 | 78.96021 | 26258 ft | 422 kts | 297° |
| 2026-05-08 17:33 | 7.52418 | 78.93382 | 26561 ft | 424 kts | 297° |
| 2026-05-08 17:33 | 7.53819 | 78.90753 | 26872 ft | 427 kts | 298° |
| 2026-05-08 17:34 | 7.55224 | 78.88113 | 27164 ft | 428 kts | 297° |
| 2026-05-08 17:34 | 7.56591 | 78.85434 | 27435 ft | 431 kts | 297° |
| 2026-05-08 17:34 | 7.57971 | 78.82747 | 27719 ft | 432 kts | 297° |
| 2026-05-08 17:34 | 7.59399 | 78.80069 | 27984 ft | 435 kts | 298° |
| 2026-05-08 17:35 | 7.60820 | 78.77371 | 28248 ft | 436 kts | 297° |
| 2026-05-08 17:35 | 7.62208 | 78.74649 | 28518 ft | 438 kts | 297° |
| 2026-05-08 17:35 | 7.63621 | 78.71923 | 28747 ft | 440 kts | 298° |
| 2026-05-08 17:35 | 7.65070 | 78.69199 | 29003 ft | 441 kts | 298° |
| 2026-05-08 17:36 | 7.66501 | 78.66459 | 29253 ft | 443 kts | 297° |
| 2026-05-08 17:36 | 7.67914 | 78.63690 | 29444 ft | 445 kts | 297° |
| 2026-05-08 17:36 | 7.69357 | 78.60925 | 29703 ft | 446 kts | 298° |
| 2026-05-08 17:36 | 7.70822 | 78.58163 | 29909 ft | 448 kts | 297° |
| 2026-05-08 17:37 | 7.72267 | 78.55373 | 30084 ft | 450 kts | 297° |
| 2026-05-08 17:37 | 7.73703 | 78.52568 | 30346 ft | 450 kts | 297° |
| 2026-05-08 17:37 | 7.75169 | 78.49770 | 30497 ft | 453 kts | 298° |
| 2026-05-08 17:37 | 7.76652 | 78.46962 | 30700 ft | 454 kts | 297° |
| 2026-05-08 17:38 | 7.78105 | 78.44141 | 30921 ft | 454 kts | 297° |
| 2026-05-08 17:38 | 7.79564 | 78.41302 | 31051 ft | 457 kts | 297° |
| 2026-05-08 17:38 | 7.81061 | 78.38455 | 29712 ft | 463 kts | 298° |
| 2026-05-08 17:38 | 7.82582 | 78.35556 | 29729 ft | 472 kts | 297° |
| 2026-05-08 17:39 | 7.84104 | 78.32594 | 29831 ft | 478 kts | 297° |
| 2026-05-08 17:39 | 7.85639 | 78.29618 | 30196 ft | 478 kts | 297° |
| 2026-05-08 17:39 | 7.87200 | 78.26651 | 30403 ft | 481 kts | 298° |
| 2026-05-08 17:39 | 7.88763 | 78.23658 | 30595 ft | 484 kts | 297° |
| 2026-05-08 17:40 | 7.90308 | 78.20643 | 30886 ft | 484 kts | 297° |
| 2026-05-08 17:40 | 7.91872 | 78.17623 | 31051 ft | 488 kts | 298° |
| 2026-05-08 17:40 | 7.93417 | 78.14574 | 31270 ft | 488 kts | 294° |
| 2026-05-08 17:40 | 7.94762 | 78.11423 | 31459 ft | 490 kts | 293° |
| 2026-05-08 17:41 | 7.96163 | 78.08272 | 31643 ft | 493 kts | 295° |
| 2026-05-08 17:41 | 7.97628 | 78.05147 | 31891 ft | 493 kts | 295° |
| 2026-05-08 17:41 | 7.99039 | 78.01981 | 32054 ft | 496 kts | 293° |
| 2026-05-08 17:41 | 8.00391 | 77.98772 | 32223 ft | 498 kts | 293° |
| 2026-05-08 17:42 | 8.01806 | 77.95584 | 32468 ft | 498 kts | 295° |
| 2026-05-08 17:42 | 8.03262 | 77.92455 | 32588 ft | 501 kts | 295° |
| 2026-05-08 17:42 | 8.04691 | 77.89242 | 32780 ft | 502 kts | 293° |
| 2026-05-08 17:42 | 8.06066 | 77.86007 | 32994 ft | 502 kts | 293° |
| 2026-05-08 17:43 | 8.08979 | 77.79566 | 33308 ft | 504 kts | 295° |
| 2026-05-08 17:43 | 8.10419 | 77.76332 | 33444 ft | 506 kts | 293° |
| 2026-05-08 17:43 | 8.11815 | 77.73066 | 33546 ft | 508 kts | 294° |
| 2026-05-08 17:44 | 8.13251 | 77.69810 | 33762 ft | 507 kts | 294° |
| 2026-05-08 17:44 | 8.14719 | 77.66571 | 33861 ft | 508 kts | 294° |
| 2026-05-08 17:44 | 8.16167 | 77.63315 | 33973 ft | 509 kts | 294° |
| 2026-05-08 17:44 | 8.17591 | 77.60051 | 34136 ft | 508 kts | 294° |
| 2026-05-08 17:45 | 8.19028 | 77.56806 | 34399 ft | 505 kts | 294° |
| 2026-05-08 17:45 | 8.20475 | 77.53586 | 34612 ft | 502 kts | 294° |
| 2026-05-08 17:45 | 8.21893 | 77.50379 | 34843 ft | 499 kts | 294° |
| 2026-05-08 17:45 | 8.23285 | 77.47187 | 35155 ft | 495 kts | 294° |
| 2026-05-08 17:46 | 8.24690 | 77.44025 | 35393 ft | 492 kts | 294° |
| 2026-05-08 17:46 | 8.26098 | 77.40887 | 35634 ft | 489 kts | 294° |
| 2026-05-08 17:46 | 8.27474 | 77.37756 | 35860 ft | 486 kts | 294° |
| 2026-05-08 17:46 | 8.28833 | 77.34639 | 36097 ft | 483 kts | 294° |
| 2026-05-08 17:47 | 8.30208 | 77.31556 | 36321 ft | 480 kts | 294° |
| 2026-05-08 17:47 | 8.31120 | 77.29526 | 36470 ft | 478 kts | 294° |
| 2026-05-08 17:47 | 8.32464 | 77.26473 | 36709 ft | 474 kts | 294° |
| 2026-05-08 17:47 | 8.33779 | 77.23440 | 36936 ft | 469 kts | 294° |
| 2026-05-08 17:48 | 8.35108 | 77.20449 | 37168 ft | 464 kts | 295° |
| 2026-05-08 17:48 | 8.36436 | 77.17496 | 37414 ft | 459 kts | 294° |
| 2026-05-08 17:48 | 8.37718 | 77.14565 | 37647 ft | 453 kts | 293° |
| 2026-05-08 17:48 | 8.38968 | 77.11671 | 37878 ft | 446 kts | 294° |
| 2026-05-08 17:49 | 8.40232 | 77.08843 | 38116 ft | 438 kts | 295° |
| 2026-05-08 17:49 | 8.41482 | 77.06076 | 38352 ft | 428 kts | 294° |
| 2026-05-08 17:49 | 8.42661 | 77.03352 | 38529 ft | 419 kts | 293° |
| 2026-05-08 17:49 | 8.43809 | 77.00673 | 38552 ft | 412 kts | 294° |
| 2026-05-08 17:50 | 8.46144 | 76.95540 | 38586 ft | 390 kts | 294° |
| 2026-05-08 17:50 | 8.47195 | 76.93077 | 38563 ft | 373 kts | 294° |
| 2026-05-08 17:50 | 8.48371 | 76.90770 | 38018 ft | 370 kts | 308° |
| 2026-05-08 17:51 | 8.49992 | 76.88708 | 36972 ft | 381 kts | 317° |
| 2026-05-08 17:51 | 8.51838 | 76.86778 | 36434 ft | 379 kts | 309° |
| 2026-05-08 17:51 | 8.53337 | 76.84661 | 36374 ft | 364 kts | 295° |
| 2026-05-08 17:51 | 8.54417 | 76.82400 | 36163 ft | 352 kts | 297° |
| 2026-05-08 17:52 | 8.55636 | 76.80256 | 35504 ft | 355 kts | 314° |
| 2026-05-08 17:52 | 8.57356 | 76.78451 | 34589 ft | 368 kts | 322° |
| 2026-05-08 17:52 | 8.60547 | 76.74638 | 34165 ft | 349 kts | 290° |
| 2026-05-08 17:53 | 8.61411 | 76.72377 | 33870 ft | 342 kts | 296° |
| 2026-05-08 17:53 | 8.62599 | 76.70299 | 33080 ft | 348 kts | 318° |
| 2026-05-08 17:53 | 8.64446 | 76.68653 | 32199 ft | 358 kts | 326° |
| 2026-05-08 17:53 | 8.66285 | 76.67041 | 32123 ft | 343 kts | 303° |
| 2026-05-08 17:54 | 8.67422 | 76.64960 | 31882 ft | 338 kts | 285° |
| 2026-05-08 17:54 | 8.68125 | 76.62706 | 31510 ft | 334 kts | 296° |
| 2026-05-08 17:54 | 8.69342 | 76.60716 | 30806 ft | 341 kts | 323° |
| 2026-05-08 17:54 | 8.71269 | 76.59260 | 30118 ft | 352 kts | 332° |
| 2026-05-08 17:55 | 8.73502 | 76.58136 | 29681 ft | 367 kts | 339° |
| 2026-05-08 17:55 | 8.75869 | 76.57067 | 29529 ft | 373 kts | 331° |
| 2026-05-08 17:55 | 8.77972 | 76.55617 | 30048 ft | 359 kts | 317° |
| 2026-05-08 17:56 | 8.81164 | 76.51734 | 30155 ft | 361 kts | 303° |
| 2026-05-08 17:56 | 8.82487 | 76.49617 | 30286 ft | 348 kts | 301° |
| 2026-05-08 17:56 | 8.83708 | 76.47486 | 30252 ft | 354 kts | 300° |
| 2026-05-08 17:57 | 8.86135 | 76.43038 | 30075 ft | 372 kts | 292° |
| 2026-05-08 17:57 | 8.87090 | 76.40587 | 29712 ft | 375 kts | 296° |
| 2026-05-08 17:57 | 8.88279 | 76.38249 | 29877 ft | 377 kts | 296° |
| 2026-05-08 17:58 | 8.90219 | 76.33196 | 29852 ft | 395 kts | 291° |
| 2026-05-08 17:58 | 8.92785 | 76.28200 | 29884 ft | 414 kts | 308° |